Time;durP1;ratioP1;P1;durP2;ratioP2;P2;SDS_P1;SDS_P2;PMS_P1;PMS_P2;Temp;Humidity;BMP_temperature;BMP_pressure;BME280_temperature;BME280_humidity;BME280_pressure;Samples;Min_cycle;Max_cycle;Signal;HPM_P1;HPM_P2
2021/04/21 00:00:30;;;;;;;11.73;8.80;;;10.30;90.10;;;;;;5056755;28;20060;-80
2021/04/21 00:02:56;;;;;;;10.82;8.45;;;10.30;90.10;;;;;;5056418;28;20028;-80
2021/04/21 00:05:23;;;;;;;13.70;9.50;;;10.30;90.10;;;;;;5057593;28;20016;-79
2021/04/21 00:07:50;;;;;;;10.70;8.77;;;10.30;90.10;;;;;;5053126;28;20070;-79
2021/04/21 00:10:18;;;;;;;10.65;9.15;;;10.30;90.10;;;;;;5054923;28;20099;-80
2021/04/21 00:12:45;;;;;;;15.07;10.88;;;10.30;90.10;;;;;;5073511;28;20024;-80
2021/04/21 00:15:14;;;;;;;15.15;11.48;;;10.30;90.20;;;;;;5050284;28;20013;-80
2021/04/21 00:17:44;;;;;;;14.73;10.52;;;10.20;90.30;;;;;;5069223;28;20103;-80
2021/04/21 00:20:10;;;;;;;15.43;11.20;;;10.10;90.50;;;;;;5074256;28;20024;-80
2021/04/21 00:22:37;;;;;;;12.30;9.95;;;10.10;90.50;;;;;;5057424;28;20024;-80
2021/04/21 00:25:04;;;;;;;13.80;10.43;;;10.00;90.50;;;;;;5052305;28;20025;-80
2021/04/21 00:27:31;;;;;;;13.48;10.43;;;10.00;90.60;;;;;;5073153;28;20095;-80
2021/04/21 00:30:00;;;;;;;14.95;10.32;;;10.00;90.60;;;;;;5053837;28;20028;-80
2021/04/21 00:32:28;;;;;;;14.02;10.48;;;10.00;90.60;;;;;;5056120;28;20023;-80
2021/04/21 00:34:57;;;;;;;13.65;10.25;;;10.00;90.70;;;;;;5055383;28;20033;-80
2021/04/21 00:37:27;;;;;;;14.80;11.85;;;10.00;90.70;;;;;;5056782;28;20024;-80
2021/04/21 00:39:54;;;;;;;17.02;12.18;;;9.90;90.70;;;;;;5056843;28;20039;-80
2021/04/21 00:42:39;;;;;;;19.52;14.02;;;9.90;90.80;;;;;;5049760;28;20024;-80
2021/04/21 00:45:15;;;;;;;16.38;12.57;;;9.90;90.80;;;;;;5054041;28;20085;-80
2021/04/21 00:48:02;;;;;;;19.15;14.10;;;9.90;90.90;;;;;;5068319;28;20092;-80
2021/04/21 00:50:38;;;;;;;15.10;12.10;;;9.80;90.90;;;;;;5049343;28;20074;-79
2021/04/21 00:53:40;;;;;;;15.32;11.45;;;9.70;91.10;;;;;;5054181;28;20021;-80
2021/04/21 00:56:18;;;;;;;13.73;11.10;;;9.80;91.10;;;;;;5053280;28;20021;-80
2021/04/21 00:58:55;;;;;;;14.98;11.85;;;9.70;91.20;;;;;;5054378;28;20020;-80
2021/04/21 01:01:22;;;;;;;17.77;11.40;;;9.60;91.40;;;;;;5054745;28;20055;-79
2021/04/21 01:03:51;;;;;;;19.38;14.32;;;9.60;91.40;;;;;;5056314;28;20046;-80
2021/04/21 01:06:21;;;;;;;17.50;12.87;;;9.60;91.50;;;;;;5053651;28;20021;-80
2021/04/21 01:08:51;;;;;;;;;;;9.50;91.50;;;;;;5072589;28;20361;-80
2021/04/21 01:11:38;;;;;;;15.05;11.43;;;9.50;91.40;;;;;;5070244;28;20287;-79
2021/04/21 01:14:10;;;;;;;14.70;11.45;;;9.40;91.60;;;;;;5072921;28;20025;-80
2021/04/21 01:16:36;;;;;;;14.85;11.68;;;9.50;91.60;;;;;;5071468;28;20016;-80
2021/04/21 01:19:12;;;;;;;14.48;10.88;;;9.40;91.60;;;;;;5073631;28;20017;-79
2021/04/21 01:21:43;;;;;;;13.73;9.75;;;9.40;91.60;;;;;;5073500;28;20063;-79
2021/04/21 01:24:18;;;;;;;14.02;10.63;;;9.30;91.70;;;;;;5053785;28;20020;-79
2021/04/21 01:27:05;;;;;;;14.45;10.50;;;9.40;91.80;;;;;;5051635;28;20032;-80
2021/04/21 01:30:01;;;;;;;15.77;11.15;;;9.30;91.80;;;;;;5054251;28;20105;-80
2021/04/21 01:32:32;;;;;;;15.43;11.77;;;9.40;91.90;;;;;;5034028;28;20064;-80
2021/04/21 01:34:58;;;;;;;13.85;10.63;;;9.30;92.10;;;;;;5054174;28;20017;-80
2021/04/21 01:37:31;;;;;;;17.08;12.00;;;9.40;92.20;;;;;;5055689;28;20023;-80
2021/04/21 01:40:09;;;;;;;22.42;14.35;;;9.40;92.20;;;;;;5073222;28;20357;-80
2021/04/21 01:42:38;;;;;;;20.77;13.70;;;9.40;92.20;;;;;;5053135;28;20025;-79
2021/04/21 01:45:05;;;;;;;18.90;13.20;;;9.40;92.20;;;;;;5053382;28;20024;-80
2021/04/21 01:47:32;;;;;;;19.38;13.13;;;9.50;92.30;;;;;;5053089;28;20480;-80
2021/04/21 01:50:05;;;;;;;17.02;12.57;;;9.50;92.30;;;;;;5054744;28;20020;-79
2021/04/21 01:52:45;;;;;;;17.05;12.32;;;9.50;92.30;;;;;;5049237;28;20021;-80
2021/04/21 01:55:17;;;;;;;20.15;14.38;;;9.50;92.40;;;;;;5052713;28;20070;-80
2021/04/21 01:57:46;;;;;;;21.30;15.48;;;9.40;92.60;;;;;;5070382;28;20499;-80
2021/04/21 02:00:33;;;;;;;22.48;15.98;;;9.40;92.80;;;;;;5072418;28;20387;-79
2021/04/21 02:03:11;;;;;;;25.83;17.48;;;9.40;92.90;;;;;;5053382;28;20017;-80
2021/04/21 02:05:52;;;;;;;24.30;16.63;;;9.40;92.90;;;;;;5072962;28;20028;-80
2021/04/21 02:08:31;;;;;;;20.58;15.77;;;9.40;93.00;;;;;;5052530;28;20097;-80
2021/04/21 02:11:17;;;;;;;20.07;15.37;;;9.40;93.10;;;;;;5053069;28;20016;-80
2021/04/21 02:14:07;;;;;;;23.27;15.40;;;9.40;93.00;;;;;;5067125;28;20047;-80
2021/04/21 02:16:42;;;;;;;;;;;9.40;93.20;;;;;;5052936;28;20025;-81
2021/04/21 02:19:28;;;;;;;20.30;13.77;;;9.30;93.10;;;;;;5054311;28;19908;-80
2021/04/21 02:22:31;;;;;;;19.42;13.73;;;9.30;93.30;;;;;;5054205;28;20028;-80
2021/04/21 02:25:16;;;;;;;21.45;14.20;;;9.40;93.30;;;;;;5049720;28;20032;-80
2021/04/21 02:28:18;;;;;;;17.45;14.00;;;9.30;93.30;;;;;;5053084;28;20033;-80
2021/04/21 02:30:50;;;;;;;19.05;13.50;;;9.30;93.30;;;;;;5019411;28;20021;-80
2021/04/21 02:33:37;;;;;;;18.05;13.38;;;9.30;93.50;;;;;;5052220;28;20035;-80
2021/04/21 02:36:09;;;;;;;17.55;13.15;;;9.30;93.60;;;;;;5054085;28;20023;-80
2021/04/21 02:38:53;;;;;;;16.23;13.18;;;9.30;93.70;;;;;;5053976;28;20033;-80
2021/04/21 02:41:52;;;;;;;17.85;13.50;;;9.30;93.80;;;;;;5052097;28;20028;-80
2021/04/21 02:44:43;;;;;;;20.10;13.90;;;9.30;93.80;;;;;;5070076;28;20024;-80
2021/04/21 02:47:23;;;;;;;20.75;13.70;;;9.30;93.90;;;;;;5051144;28;20025;-80
2021/04/21 02:50:13;;;;;;;19.95;14.95;;;9.30;94.00;;;;;;5053270;28;20487;-80
2021/04/21 02:52:38;;;;;;;20.27;14.25;;;9.40;94.10;;;;;;5020600;28;20032;-80
2021/04/21 02:55:41;;;;;;;18.42;14.63;;;9.40;94.10;;;;;;5070449;28;20024;-80
2021/04/21 02:58:30;;;;;;;22.02;15.38;;;9.40;94.10;;;;;;5069176;28;20066;-80
2021/04/21 03:01:23;;;;;;;19.67;14.82;;;9.40;94.30;;;;;;5070257;28;20108;-80
2021/04/21 03:04:05;;;;;;;19.02;14.45;;;9.40;94.40;;;;;;5053736;28;20476;-79
2021/04/21 03:06:39;;;;;;;21.02;15.40;;;9.40;94.60;;;;;;5071908;28;20108;-80
2021/04/21 03:09:14;;;;;;;21.42;15.68;;;9.50;94.70;;;;;;5051858;28;20021;-80
2021/04/21 03:11:41;;;;;;;19.50;15.50;;;9.50;94.80;;;;;;5067679;28;20012;-80
2021/04/21 03:14:06;;;;;;;22.45;16.27;;;9.50;94.80;;;;;;5070648;28;20016;-80
2021/04/21 03:16:48;;;;;;;23.48;15.32;;;9.60;94.80;;;;;;5069381;28;20017;-80
2021/04/21 03:19:19;;;;;;;21.20;15.75;;;9.60;94.90;;;;;;5071246;28;20036;-80
2021/04/21 03:21:59;;;;;;;20.00;16.20;;;9.60;94.90;;;;;;5052516;28;20024;-80
2021/04/21 03:24:28;;;;;;;21.45;15.68;;;9.60;95.00;;;;;;5072146;28;20480;-80
2021/04/21 03:26:59;;;;;;;20.40;15.75;;;9.60;95.00;;;;;;5049339;28;20028;-80
2021/04/21 03:29:30;;;;;;;20.65;14.93;;;9.60;95.10;;;;;;5052098;28;20031;-80
2021/04/21 03:32:02;;;;;;;19.73;15.30;;;9.60;95.10;;;;;;5068700;28;20028;-80
2021/04/21 03:34:28;;;;;;;23.15;15.30;;;9.60;95.20;;;;;;5052681;28;20071;-80
2021/04/21 03:36:54;;;;;;;20.13;16.02;;;9.60;95.30;;;;;;5070473;28;20093;-80
2021/04/21 03:39:21;;;;;;;21.42;16.70;;;9.70;95.40;;;;;;5068858;28;20103;-80
2021/04/21 03:41:46;;;;;;;21.25;17.10;;;9.60;95.50;;;;;;5052581;28;20031;-80
2021/04/21 03:44:12;;;;;;;22.25;16.85;;;9.60;95.60;;;;;;5050720;28;20020;-80
2021/04/21 03:46:41;;;;;;;22.20;16.52;;;9.60;95.60;;;;;;5069787;28;20107;-80
2021/04/21 03:49:08;;;;;;;25.45;17.60;;;9.60;95.60;;;;;;5050691;28;20021;-80
2021/04/21 03:51:36;;;;;;;21.52;17.60;;;9.70;95.70;;;;;;5070536;28;20506;-80
2021/04/21 03:54:02;;;;;;;21.17;17.13;;;9.70;95.60;;;;;;5067610;28;20028;-80
2021/04/21 03:56:29;;;;;;;20.73;17.35;;;9.60;95.70;;;;;;5050308;28;20020;-80
2021/04/21 03:58:56;;;;;;;24.30;18.02;;;9.60;95.90;;;;;;5052258;28;20025;-80
2021/04/21 04:01:24;;;;;;;22.08;17.73;;;9.60;96.10;;;;;;5069355;28;20507;-80
2021/04/21 04:04:01;;;;;;;24.00;18.60;;;9.50;96.10;;;;;;5053132;28;20111;-80
2021/04/21 04:06:47;;;;;;;27.60;19.77;;;9.60;96.20;;;;;;5053044;28;20032;-80
2021/04/21 04:09:14;;;;;;;24.80;20.58;;;9.50;96.40;;;;;;5051161;28;20040;-80
2021/04/21 04:11:46;;;;;;;23.98;19.15;;;9.50;96.60;;;;;;5048949;28;20024;-80
2021/04/21 04:14:22;;;;;;;27.48;21.52;;;9.50;96.70;;;;;;5051876;28;20109;-80
2021/04/21 04:16:52;;;;;;;26.83;21.80;;;9.50;96.80;;;;;;5068740;28;20101;-80
2021/04/21 04:19:18;;;;;;;29.75;22.80;;;9.50;97.00;;;;;;5049940;28;20404;-80
2021/04/21 04:22:03;;;;;;;25.88;21.05;;;9.50;97.10;;;;;;5052130;28;20031;-80
2021/04/21 04:24:33;;;;;;;32.40;24.42;;;9.50;97.10;;;;;;5036969;28;20028;-79
2021/04/21 04:27:01;;;;;;;29.55;23.40;;;9.40;97.30;;;;;;5066443;28;20017;-80
2021/04/21 04:29:27;;;;;;;26.42;21.15;;;9.40;97.40;;;;;;5051554;28;20043;-80
2021/04/21 04:31:55;;;;;;;28.77;22.83;;;9.40;97.40;;;;;;5051283;28;20021;-80
2021/04/21 04:34:23;;;;;;;29.08;21.77;;;9.40;97.50;;;;;;5036730;28;20087;-80
2021/04/21 04:36:49;;;;;;;30.95;23.55;;;9.40;97.60;;;;;;5055248;28;20025;-80
2021/04/21 04:39:15;;;;;;;30.75;23.08;;;9.30;97.70;;;;;;5074906;28;20028;-80
2021/04/21 04:41:41;;;;;;;31.30;24.17;;;9.30;97.90;;;;;;5071741;28;20025;-80
2021/04/21 04:44:07;;;;;;;31.42;25.40;;;9.30;97.90;;;;;;5068037;28;20506;-79
2021/04/21 04:46:39;;;;;;;30.42;23.15;;;9.30;98.00;;;;;;5055384;28;20021;-79
2021/04/21 04:49:09;;;;;;;40.38;31.55;;;9.30;97.90;;;;;;5054184;28;20024;-80
2021/04/21 04:51:37;;;;;;;39.45;29.15;;;9.30;98.10;;;;;;5055300;28;20027;-79
2021/04/21 04:54:04;;;;;;;33.55;26.52;;;9.30;98.10;;;;;;5052926;28;20411;-80
2021/04/21 04:56:37;;;;;;;31.80;24.77;;;9.30;98.20;;;;;;5053508;28;20021;-80
2021/04/21 04:59:04;;;;;;;38.13;29.40;;;9.30;98.20;;;;;;5055164;28;20024;-80
2021/04/21 05:01:38;;;;;;;35.28;26.88;;;9.20;98.30;;;;;;5054383;28;20016;-80
2021/04/21 05:04:04;;;;;;;27.33;23.48;;;9.30;98.30;;;;;;5053188;28;20078;-80
2021/04/21 05:06:34;;;;;;;29.63;23.27;;;9.20;98.30;;;;;;5055827;28;20111;-80
2021/04/21 05:09:04;;;;;;;29.63;22.67;;;9.20;98.40;;;;;;5053997;28;20506;-80
2021/04/21 05:11:31;;;;;;;28.05;22.30;;;9.20;98.50;;;;;;5052181;28;20035;-80
2021/04/21 05:13:57;;;;;;;28.40;23.35;;;9.10;98.50;;;;;;5054585;28;20035;-80
2021/04/21 05:16:26;;;;;;;27.88;22.65;;;9.10;98.60;;;;;;5072839;28;20024;-80
2021/04/21 05:19:11;;;;;;;32.85;23.73;;;9.10;98.60;;;;;;5070249;28;20135;-80
2021/04/21 05:22:08;;;;;;;28.38;23.10;;;9.10;98.60;;;;;;5072586;28;20391;-80
2021/04/21 05:24:52;;;;;;;33.63;25.50;;;9.10;98.70;;;;;;5053145;28;20024;-80
2021/04/21 05:28:09;;;;;;;30.95;23.73;;;9.10;98.80;;;;;;5054432;28;20035;-79
2021/04/21 05:31:08;;;;;;;29.00;22.13;;;9.10;98.80;;;;;;5053293;28;20116;-80
2021/04/21 05:33:56;;;;;;;30.65;23.95;;;9.10;98.70;;;;;;5053563;28;20542;-80
2021/04/21 05:36:24;;;;;;;28.27;22.10;;;9.00;98.80;;;;;;5053509;28;20033;-80
2021/04/21 05:39:17;;;;;;;34.53;27.98;;;9.00;98.80;;;;;;5053151;28;20021;-80
2021/04/21 05:42:21;;;;;;;33.20;26.50;;;9.00;98.90;;;;;;5069252;28;20031;-80
2021/04/21 05:45:31;;;;;;;36.40;28.63;;;9.00;99.00;;;;;;5072936;28;20463;-80
2021/04/21 05:48:26;;;;;;;36.35;28.45;;;9.00;99.20;;;;;;5074321;28;20031;-81
2021/04/21 05:51:00;;;;;;;38.17;30.73;;;9.00;99.30;;;;;;5073910;28;20024;-80
2021/04/21 05:53:52;;;;;;;36.83;28.08;;;9.00;99.50;;;;;;5073079;28;20029;-80
2021/04/21 05:56:39;;;;;;;39.55;30.00;;;9.00;99.40;;;;;;5074371;28;20498;-81
2021/04/21 05:59:35;;;;;;;35.63;29.15;;;9.10;99.50;;;;;;5070760;28;20025;-80
2021/04/21 06:02:02;;;;;;;36.72;29.50;;;9.10;99.50;;;;;;5061141;28;20021;-80
2021/04/21 06:04:28;;;;;;;36.63;28.70;;;9.10;99.70;;;;;;5053107;28;20029;-80
2021/04/21 06:07:08;;;;;;;36.63;28.75;;;9.10;99.70;;;;;;5059156;28;20056;-80
2021/04/21 06:09:33;;;;;;;;;;;9.20;99.70;;;;;;5053321;28;20032;-80
2021/04/21 06:12:14;;;;;;;38.17;30.42;;;9.10;99.70;;;;;;5054167;28;20414;-80
2021/04/21 06:14:42;;;;;;;43.25;32.50;;;9.20;99.90;;;;;;5053006;28;20055;-80
2021/04/21 06:17:07;;;;;;;42.78;33.85;;;9.20;99.90;;;;;;5064787;28;20045;-79
2021/04/21 06:19:33;;;;;;;39.22;31.80;;;9.20;99.90;;;;;;5055704;28;20021;-80
2021/04/21 06:21:59;;;;;;;46.38;33.42;;;9.30;99.90;;;;;;5052676;28;20063;-80
2021/04/21 06:24:29;;;;;;;39.42;32.85;;;9.30;99.90;;;;;;5052645;28;20377;-80
2021/04/21 06:27:10;;;;;;;38.58;31.05;;;9.30;99.90;;;;;;5053937;28;20492;-80
2021/04/21 06:29:36;;;;;;;39.75;30.60;;;9.40;99.90;;;;;;5052572;28;20381;-80
2021/04/21 06:32:04;;;;;;;37.85;29.58;;;9.40;99.90;;;;;;5052613;28;20056;-79
2021/04/21 06:34:30;;;;;;;37.20;28.83;;;9.40;99.90;;;;;;5052653;28;20033;-80
2021/04/21 06:36:58;;;;;;;37.30;28.95;;;9.50;99.90;;;;;;5052486;28;20021;-80
2021/04/21 06:39:26;;;;;;;43.85;35.00;;;9.50;99.90;;;;;;5052339;28;20033;-80
2021/04/21 06:41:59;;;;;;;37.58;30.27;;;9.50;99.90;;;;;;5053446;28;20155;-80
2021/04/21 06:44:43;;;;;;;36.97;30.98;;;9.60;99.90;;;;;;5060412;28;20021;-79
2021/04/21 06:47:19;;;;;;;42.17;33.08;;;9.70;99.90;;;;;;5062235;28;20024;-80
2021/04/21 06:49:56;;;;;;;44.97;33.38;;;9.70;99.90;;;;;;5061774;28;20028;-80
2021/04/21 06:52:22;;;;;;;45.28;36.28;;;9.70;99.90;;;;;;5061134;28;20032;-80
2021/04/21 06:55:01;;;;;;;46.47;36.65;;;9.80;99.90;;;;;;5060839;28;20129;-81
2021/04/21 06:57:27;;;;;;;;;;;9.90;99.90;;;;;;5069351;28;20024;-81
2021/04/21 07:00:16;;;;;;;38.72;31.48;;;9.90;99.90;;;;;;5073307;28;19922;-80
2021/04/21 07:02:43;;;;;;;47.33;35.83;;;10.00;99.90;;;;;;5072754;28;20017;-80
2021/04/21 07:05:27;;;;;;;46.75;35.97;;;10.00;99.90;;;;;;5063509;28;20009;-80
2021/04/21 07:08:11;;;;;;;46.75;36.20;;;10.00;99.90;;;;;;5063304;28;20146;-79
2021/04/21 07:10:52;;;;;;;49.88;37.00;;;10.10;99.90;;;;;;5060340;28;20500;-79
2021/04/21 07:13:17;;;;;;;44.47;33.28;;;10.10;99.90;;;;;;5054727;28;20061;-80
2021/04/21 07:15:44;;;;;;;40.65;30.70;;;10.10;99.90;;;;;;5064482;28;20059;-80
2021/04/21 07:18:15;;;;;;;41.30;31.83;;;10.20;99.90;;;;;;5050637;28;20041;-79
2021/04/21 07:20:42;;;;;;;42.00;31.75;;;10.30;99.90;;;;;;5034896;28;20021;-80
2021/04/21 07:23:10;;;;;;;45.55;33.00;;;10.30;99.90;;;;;;5034959;28;20021;-80
2021/04/21 07:25:37;;;;;;;41.05;30.45;;;10.40;99.90;;;;;;5052648;28;20096;-80
2021/04/21 07:28:03;;;;;;;39.35;29.67;;;10.40;99.90;;;;;;5052569;28;20021;-80
2021/04/21 07:30:32;;;;;;;38.97;29.20;;;10.50;99.90;;;;;;5052474;28;20033;-80
2021/04/21 07:32:58;;;;;;;36.83;28.95;;;10.60;99.90;;;;;;5034845;28;20033;-80
2021/04/21 07:35:25;;;;;;;35.75;28.80;;;10.60;99.90;;;;;;5034255;28;20032;-79
2021/04/21 07:37:55;;;;;;;34.78;28.92;;;10.70;99.90;;;;;;5034746;28;20032;-80
2021/04/21 07:40:21;;;;;;;35.63;27.83;;;10.80;99.90;;;;;;5052403;28;20045;-80
2021/04/21 07:42:47;;;;;;;36.97;26.42;;;10.80;99.90;;;;;;5034885;28;20095;-80
2021/04/21 07:45:14;;;;;;;31.17;24.60;;;10.90;99.90;;;;;;5034997;28;20416;-80
2021/04/21 07:47:39;;;;;;;28.40;23.38;;;10.90;99.90;;;;;;5034755;28;20112;-80
2021/04/21 07:50:05;;;;;;;31.48;24.58;;;10.90;99.90;;;;;;5035170;28;20457;-80
2021/04/21 07:52:34;;;;;;;26.63;21.83;;;11.00;99.90;;;;;;5034721;28;20122;-80
2021/04/21 07:55:21;;;;;;;31.50;22.83;;;11.00;99.90;;;;;;5052251;28;20021;-80
2021/04/21 07:58:04;;;;;;;29.83;24.20;;;11.20;99.90;;;;;;5034670;28;20021;-80
2021/04/21 08:00:31;;;;;;;30.25;24.02;;;11.20;99.50;;;;;;5052589;28;20018;-80
2021/04/21 08:03:00;;;;;;;29.73;24.00;;;11.20;99.40;;;;;;5034336;28;20025;-80
2021/04/21 08:05:25;;;;;;;29.67;23.15;;;11.20;99.30;;;;;;5034440;28;20025;-80
2021/04/21 08:07:55;;;;;;;27.30;21.30;;;11.30;99.20;;;;;;5037157;28;20108;-81
2021/04/21 08:10:24;;;;;;;30.60;23.13;;;11.40;98.90;;;;;;5038252;28;20378;-81
2021/04/21 08:12:55;;;;;;;26.38;21.63;;;11.60;98.60;;;;;;5038353;28;20366;-81
2021/04/21 08:15:28;;;;;;;25.98;19.90;;;11.60;98.50;;;;;;5052574;28;20452;-81
2021/04/21 08:17:59;;;;;;;23.67;18.85;;;11.80;98.30;;;;;;5037753;28;20051;-81
2021/04/21 08:20:30;;;;;;;26.77;21.98;;;11.90;98.30;;;;;;5065256;28;20021;-83
2021/04/21 08:22:58;;;;;;;25.92;19.75;;;12.00;97.90;;;;;;5074908;28;20031;-81
2021/04/21 08:25:23;;;;;;;27.17;20.13;;;12.00;97.50;;;;;;5075958;28;20051;-80
2021/04/21 08:27:49;;;;;;;24.90;18.35;;;12.10;96.70;;;;;;5074844;28;20060;-81
2021/04/21 08:30:16;;;;;;;25.90;18.50;;;12.10;96.70;;;;;;5074666;28;20434;-82
2021/04/21 08:32:41;;;;;;;22.25;17.90;;;12.30;96.50;;;;;;5074605;28;20078;-82
2021/04/21 08:35:08;;;;;;;24.13;17.52;;;12.40;96.00;;;;;;5074586;28;20017;-82
2021/04/21 08:37:34;;;;;;;21.80;16.58;;;12.50;95.60;;;;;;5075565;28;20036;-80
2021/04/21 08:40:00;;;;;;;24.95;15.93;;;12.50;95.10;;;;;;5074667;28;20016;-83
2021/04/21 08:42:28;;;;;;;23.23;17.42;;;12.60;94.40;;;;;;5075542;28;20021;-82
2021/04/21 08:44:53;;;;;;;21.30;16.23;;;12.70;93.50;;;;;;5074337;28;20062;-83
2021/04/21 08:47:19;;;;;;;17.60;13.82;;;12.80;93.30;;;;;;5075755;28;20056;-81
2021/04/21 08:49:45;;;;;;;21.08;15.68;;;12.90;93.30;;;;;;5074462;28;20056;-80
2021/04/21 08:52:16;;;;;;;21.77;16.23;;;13.10;93.10;;;;;;5074406;28;20565;-82
2021/04/21 08:54:45;;;;;;;19.48;14.45;;;13.20;92.00;;;;;;5074313;28;20032;-81
2021/04/21 08:57:12;;;;;;;15.68;12.52;;;13.30;91.70;;;;;;5074253;28;20032;-81
2021/04/21 08:59:42;;;;;;;16.58;13.10;;;13.40;91.80;;;;;;5073736;28;20382;-82
2021/04/21 09:02:10;;;;;;;19.95;14.18;;;13.50;91.40;;;;;;5073976;28;20028;-83
2021/04/21 09:04:35;;;;;;;19.48;15.27;;;13.60;90.90;;;;;;5066879;28;20025;-81
2021/04/21 09:07:02;;;;;;;18.88;14.75;;;13.60;90.00;;;;;;5062073;28;20071;-81
2021/04/21 09:09:27;;;;;;;19.63;13.82;;;13.60;89.00;;;;;;5072010;28;20535;-81
2021/04/21 09:11:53;;;;;;;20.00;13.93;;;13.70;88.50;;;;;;5053744;28;20124;-81
2021/04/21 09:14:19;;;;;;;17.33;14.05;;;13.80;88.40;;;;;;5053941;28;20052;-80
2021/04/21 09:16:45;;;;;;;16.83;12.38;;;13.90;87.30;;;;;;5057963;28;20492;-80
2021/04/21 09:19:13;;;;;;;16.90;12.73;;;14.10;87.40;;;;;;5074074;28;20017;-81
2021/04/21 09:21:42;;;;;;;18.00;13.25;;;14.30;87.30;;;;;;5056895;28;20025;-81
2021/04/21 09:24:27;;;;;;;19.27;14.20;;;14.40;86.40;;;;;;5056654;28;20438;-81
2021/04/21 09:26:53;;;;;;;15.02;12.20;;;14.50;84.30;;;;;;5072067;28;20034;-81
2021/04/21 09:29:32;;;;;;;17.75;12.82;;;14.50;83.90;;;;;;5056705;28;20020;-82
2021/04/21 09:32:09;;;;;;;16.55;10.80;;;14.60;82.30;;;;;;5052498;28;20050;-83
2021/04/21 09:34:34;;;;;;;13.07;10.57;;;14.70;82.10;;;;;;5054574;28;20452;-82
2021/04/21 09:37:00;;;;;;;16.13;11.50;;;14.80;81.60;;;;;;5056718;28;20118;-82
2021/04/21 09:39:26;;;;;;;15.25;11.27;;;15.00;81.60;;;;;;5056670;28;20066;-83
2021/04/21 09:42:00;;;;;;;13.65;9.68;;;15.30;82.40;;;;;;5056251;28;20384;-82
2021/04/21 09:44:32;;;;;;;15.85;11.30;;;15.90;80.90;;;;;;5042009;28;20109;-81
2021/04/21 09:47:12;;;;;;;12.88;8.80;;;17.70;75.40;;;;;;5053624;28;20017;-83
2021/04/21 09:49:40;;;;;;;15.55;9.52;;;19.80;68.30;;;;;;5054056;28;20028;-83
2021/04/21 09:52:11;;;;;;;13.40;9.30;;;20.80;58.20;;;;;;5055773;28;20157;-83
2021/04/21 09:54:41;;;;;;;14.40;9.88;;;21.30;55.20;;;;;;5053429;28;20123;-83
2021/04/21 09:57:19;;;;;;;12.32;9.00;;;21.60;53.50;;;;;;5052382;28;20078;-82
2021/04/21 10:00:04;;;;;;;11.95;8.40;;;22.10;53.00;;;;;;5054652;28;20086;-83
2021/04/21 10:02:35;;;;;;;11.68;8.50;;;22.70;53.10;;;;;;5055177;28;20051;-84
2021/04/21 10:05:20;;;;;;;16.20;10.55;;;22.80;51.80;;;;;;5073064;28;20070;-82
2021/04/21 10:07:45;;;;;;;9.98;7.93;;;22.30;48.60;;;;;;5055299;28;20021;-83
2021/04/21 10:10:11;;;;;;;15.32;10.68;;;22.60;49.80;;;;;;5072474;28;20495;-83
2021/04/21 10:12:39;;;;;;;12.07;9.02;;;22.90;47.90;;;;;;5047410;28;20056;-82
2021/04/21 10:15:08;;;;;;;16.30;10.82;;;23.60;47.50;;;;;;5053339;28;20115;-83
2021/04/21 10:17:36;;;;;;;15.52;11.88;;;24.10;46.70;;;;;;5054666;28;20058;-82
2021/04/21 10:20:11;;;;;;;13.82;11.15;;;23.60;46.60;;;;;;5072567;28;20023;-82
2021/04/21 10:22:44;;;;;;;15.88;12.73;;;23.60;46.50;;;;;;5072066;28;20090;-82
2021/04/21 10:25:12;;;;;;;15.27;12.38;;;23.50;47.10;;;;;;5072061;28;20021;-83
2021/04/21 10:27:38;;;;;;;12.00;10.07;;;23.50;47.40;;;;;;5072183;28;20115;-83
2021/04/21 10:30:06;;;;;;;14.70;10.73;;;23.50;47.80;;;;;;5070753;28;20441;-83
2021/04/21 10:32:33;;;;;;;16.65;13.32;;;23.90;47.20;;;;;;5072040;28;20068;-82
2021/04/21 10:34:59;;;;;;;17.35;12.05;;;24.30;46.20;;;;;;5071815;28;20036;-82
2021/04/21 10:37:25;;;;;;;9.70;8.63;;;24.60;45.30;;;;;;5070934;28;20051;-82
2021/04/21 10:39:55;;;;;;;9.52;6.65;;;25.50;44.80;;;;;;5083678;28;20035;-82
2021/04/21 10:42:24;;;;;;;14.45;11.75;;;26.70;44.40;;;;;;5070094;28;20104;-84
2021/04/21 10:44:51;;;;;;;14.10;10.25;;;27.30;41.00;;;;;;5065562;28;20044;-82
2021/04/21 10:47:23;;;;;;;14.25;12.18;;;27.60;41.50;;;;;;5075984;28;20106;-84
2021/04/21 10:50:08;;;;;;;12.90;10.63;;;27.90;40.00;;;;;;5077839;28;20024;-83
2021/04/21 10:52:36;;;;;;;12.40;10.23;;;28.40;40.10;;;;;;5074256;28;20024;-83
2021/04/21 10:55:08;;;;;;;10.18;9.02;;;28.70;40.20;;;;;;5086198;28;20016;-83
2021/04/21 10:57:37;;;;;;;12.52;9.88;;;29.20;40.60;;;;;;5060817;28;20505;-84
2021/04/21 11:00:32;;;;;;;9.95;8.65;;;29.80;39.50;;;;;;5089208;28;20020;-83
2021/04/21 11:03:05;;;;;;;12.25;10.40;;;30.60;39.00;;;;;;5083249;28;20035;-83
2021/04/21 11:05:43;;;;;;;11.65;10.45;;;30.30;38.50;;;;;;5086491;28;20161;-83
2021/04/21 11:08:20;;;;;;;12.23;9.27;;;30.60;37.30;;;;;;5081411;28;20020;-84
2021/04/21 11:11:03;;;;;;;13.05;10.73;;;31.00;36.90;;;;;;5086539;28;20166;-84
2021/04/21 11:13:38;;;;;;;9.80;8.80;;;31.30;36.10;;;;;;5079591;28;20029;-82
2021/04/21 11:16:26;;;;;;;10.18;8.93;;;31.60;37.00;;;;;;5078839;28;20012;-83
2021/04/21 11:18:52;;;;;;;12.30;9.65;;;32.20;36.10;;;;;;5075577;28;20504;-83
2021/04/21 11:21:21;;;;;;;12.85;11.23;;;32.00;35.30;;;;;;5066573;28;20050;-84
2021/04/21 11:24:03;;;;;;;9.35;8.18;;;31.90;34.80;;;;;;5088451;28;20024;-82
2021/04/21 11:26:30;;;;;;;12.75;11.38;;;31.80;35.30;;;;;;5082032;28;20035;-82
2021/04/21 11:28:59;;;;;;;12.00;9.93;;;31.60;33.60;;;;;;5072100;28;20481;-82
2021/04/21 11:31:59;;;;;;;11.75;10.13;;;31.60;34.20;;;;;;5089543;28;20020;-84
2021/04/21 11:34:33;;;;;;;9.32;8.35;;;31.40;33.50;;;;;;5026616;28;20024;-85
2021/04/21 11:37:01;;;;;;;8.27;7.47;;;31.40;33.80;;;;;;5078309;28;20109;-85
2021/04/21 11:39:42;;;;;;;9.30;7.55;;;31.50;34.00;;;;;;5077240;28;20036;-81
2021/04/21 11:42:38;;;;;;;9.50;7.75;;;32.10;33.90;;;;;;5056926;28;20059;-83
2021/04/21 11:45:26;;;;;;;10.98;9.63;;;32.60;33.70;;;;;;5061894;28;20476;-84
2021/04/21 11:48:04;;;;;;;8.98;6.85;;;32.80;32.00;;;;;;5080001;28;20032;-83
2021/04/21 11:50:34;;;;;;;8.48;7.30;;;32.40;31.80;;;;;;5087903;28;20115;-82
2021/04/21 11:53:14;;;;;;;8.38;7.53;;;32.30;31.30;;;;;;5089695;28;20016;-82
2021/04/21 11:56:18;;;;;;;7.43;6.63;;;32.40;30.90;;;;;;5088690;28;20017;-83
2021/04/21 11:58:38;;;;;;;9.15;6.43;;;32.60;31.50;;;;;;5081338;28;20039;-83
2021/04/21 12:01:11;;;;;;;8.75;7.00;;;32.50;30.60;;;;;;5082452;28;20021;-84
2021/04/21 12:03:38;;;;;;;11.40;6.85;;;33.00;31.00;;;;;;5079496;28;20096;-83
2021/04/21 12:06:12;;;;;;;8.77;6.32;;;33.10;30.90;;;;;;5090441;28;20434;-84
2021/04/21 12:08:49;;;;;;;11.32;9.48;;;33.20;30.50;;;;;;5088507;28;20517;-85
2021/04/21 12:11:26;;;;;;;12.13;10.93;;;32.60;31.30;;;;;;5089315;28;20020;-82
2021/04/21 12:13:52;;;;;;;16.38;14.00;;;33.00;32.70;;;;;;5061528;28;20020;-85
2021/04/21 12:16:20;;;;;;;13.82;12.25;;;32.60;32.70;;;;;;5080138;28;20027;-84
2021/04/21 12:18:50;;;;;;;13.88;12.32;;;31.90;33.90;;;;;;5087130;28;20043;-85
2021/04/21 12:21:15;;;;;;;15.23;12.38;;;31.10;34.80;;;;;;5078878;28;20024;-85
2021/04/21 12:23:43;;;;;;;12.88;11.50;;;30.50;35.10;;;;;;5088460;28;20601;-84
2021/04/21 12:26:26;;;;;;;15.13;10.68;;;30.40;35.50;;;;;;5088536;28;20028;-83
2021/04/21 12:28:55;;;;;;;14.07;10.85;;;30.50;35.90;;;;;;5085208;28;20024;-83
2021/04/21 12:31:24;;;;;;;11.20;9.45;;;30.30;35.30;;;;;;5071825;28;20485;-84
2021/04/21 12:33:51;;;;;;;12.80;10.82;;;30.10;36.30;;;;;;5071222;28;20036;-84
2021/04/21 12:36:22;;;;;;;12.10;10.38;;;29.80;35.70;;;;;;5075478;28;20119;-83
2021/04/21 12:39:00;;;;;;;12.90;8.65;;;29.50;36.00;;;;;;5088424;28;20017;-83
2021/04/21 12:41:26;;;;;;;10.40;8.30;;;29.50;36.40;;;;;;5085867;28;20028;-83
2021/04/21 12:43:52;;;;;;;10.40;8.70;;;29.70;36.90;;;;;;5086424;28;20488;-83
2021/04/21 12:46:19;;;;;;;13.93;10.35;;;30.10;36.40;;;;;;5085186;28;20028;-84
2021/04/21 12:48:55;;;;;;;9.00;7.00;;;29.90;35.00;;;;;;5086507;28;20437;-84
2021/04/21 12:51:29;;;;;;;8.40;7.32;;;30.20;36.40;;;;;;5088503;28;20016;-82
2021/04/21 12:53:56;;;;;;;9.57;8.50;;;30.40;36.00;;;;;;5086966;28;20112;-83
2021/04/21 12:56:22;;;;;;;8.60;7.65;;;30.30;35.50;;;;;;5090058;28;20023;-84
2021/04/21 12:58:47;;;;;;;8.68;7.43;;;30.40;35.60;;;;;;5089566;28;20028;-82
2021/04/21 13:01:14;;;;;;;8.70;7.78;;;30.30;35.60;;;;;;5084029;28;20523;-83
2021/04/21 13:04:04;;;;;;;7.57;6.68;;;30.20;35.40;;;;;;5067592;28;20050;-83
2021/04/21 13:06:50;;;;;;;7.93;6.80;;;29.90;36.00;;;;;;5087132;28;20028;-83